createdAt,value
2022-08-11T00:00:21.739Z,19.75
2022-08-11T00:01:26.814Z,19.75
2022-08-11T00:02:34.298Z,19.72
2022-08-11T00:03:43.829Z,19.69
2022-08-11T00:04:46.728Z,19.69
2022-08-11T00:05:54.908Z,19.68
2022-08-11T00:07:02.516Z,19.66
2022-08-11T00:08:05.206Z,19.65
2022-08-11T00:09:11.600Z,19.63
2022-08-11T00:10:16.429Z,19.62
2022-08-11T00:11:21.368Z,19.60
2022-08-11T00:12:23.978Z,19.59
2022-08-11T00:13:39.128Z,19.56
2022-08-11T00:14:42.956Z,19.55
2022-08-11T00:15:45.818Z,19.53
2022-08-11T00:17:10.877Z,19.52
2022-08-11T00:18:13.962Z,19.50
2022-08-11T00:20:12.208Z,19.50
2022-08-11T00:20:45.657Z,19.49
2022-08-11T00:22:04.001Z,19.48
2022-08-11T00:23:11.951Z,19.45
2022-08-11T00:24:15.388Z,19.46
2022-08-11T00:25:20.557Z,19.42
2022-08-11T00:26:24.140Z,19.40
2022-08-11T00:27:34.979Z,19.40
2022-08-11T00:28:37.536Z,19.37
2022-08-11T00:29:51.499Z,19.37
2022-08-11T00:30:59.935Z,19.35
2022-08-11T00:32:13.500Z,19.33
2022-08-11T00:33:17.265Z,19.32
2022-08-11T00:34:25.493Z,19.31
2022-08-11T00:35:51.967Z,19.31
2022-08-11T00:37:01.157Z,19.28
2022-08-11T00:38:07.469Z,19.27
2022-08-11T00:39:11.231Z,19.26
2022-08-11T00:40:23.341Z,19.26
2022-08-11T00:41:42.148Z,19.24
2022-08-11T00:43:24.994Z,19.20
2022-08-11T00:44:45.401Z,19.19
2022-08-11T00:46:26.670Z,19.17
2022-08-11T00:48:00.337Z,19.15
2022-08-11T00:49:16.919Z,19.13
2022-08-11T00:50:22.630Z,19.10
2022-08-11T00:52:03.887Z,19.07
2022-08-11T00:53:26.284Z,19.04
2022-08-11T00:54:55.977Z,19.00
2022-08-11T00:56:36.985Z,18.98
2022-08-11T00:58:12.735Z,18.93
2022-08-11T00:59:58.839Z,18.92
2022-08-11T01:01:14.942Z,18.88
2022-08-11T01:02:39.282Z,18.84
2022-08-11T01:04:11.417Z,18.80
2022-08-11T01:05:52.844Z,18.77
2022-08-11T01:07:06.913Z,18.74
2022-08-11T01:08:57.135Z,18.69
2022-08-11T01:10:43.268Z,18.64
2022-08-11T01:12:15.778Z,18.61
2022-08-11T01:13:55.487Z,18.57
2022-08-11T01:15:31.734Z,18.50
2022-08-11T01:17:25.434Z,18.44
2022-08-11T01:18:44.641Z,18.38
2022-08-11T01:20:44.724Z,18.36
2022-08-11T01:22:18.240Z,18.28
2022-08-11T01:23:38.192Z,18.24
2022-08-11T01:25:14.487Z,18.19
2022-08-11T01:26:35.575Z,18.15
2022-08-11T01:27:56.680Z,18.11
2022-08-11T01:29:11.956Z,18.07
2022-08-11T01:30:39.345Z,18.03
2022-08-11T01:32:00.997Z,18.00
2022-08-11T01:33:34.653Z,17.96
2022-08-11T01:34:55.593Z,17.92
2022-08-11T01:36:53.428Z,17.89
2022-08-11T01:38:12.884Z,17.83
2022-08-11T01:39:30.431Z,17.82
2022-08-11T01:40:47.352Z,17.77
2022-08-11T01:42:52.661Z,17.74
2022-08-11T01:44:38.011Z,17.69
2022-08-11T01:46:01.275Z,17.66
2022-08-11T01:47:36.153Z,17.62
2022-08-11T01:48:57.207Z,17.58
2022-08-11T01:50:21.525Z,17.57
2022-08-11T01:52:02.174Z,17.52
2022-08-11T01:53:27.232Z,17.50
2022-08-11T01:54:53.753Z,17.47
2022-08-11T01:56:05.178Z,17.45
2022-08-11T01:57:10.430Z,17.44
2022-08-11T01:58:43.344Z,17.43
2022-08-11T01:59:51.956Z,17.40
2022-08-11T02:01:16.663Z,17.38
2022-08-11T02:02:50.781Z,17.37
2022-08-11T02:04:04.751Z,17.35
2022-08-11T02:05:39.196Z,17.33
2022-08-11T02:06:59.033Z,17.30
2022-08-11T02:08:32.884Z,17.30
2022-08-11T02:10:43.023Z,17.30
2022-08-11T02:12:02.585Z,17.29
2022-08-11T02:13:35.636Z,17.28
2022-08-11T02:15:37.728Z,17.26
2022-08-11T02:16:42.644Z,17.26
2022-08-11T02:18:23.764Z,17.23
2022-08-11T02:20:10.245Z,17.19
2022-08-11T02:21:45.950Z,17.19
2022-08-11T02:24:03.868Z,17.17
2022-08-11T02:25:24.068Z,17.17
2022-08-11T02:26:42.151Z,17.17
2022-08-11T02:27:51.966Z,17.15
2022-08-11T02:29:27.899Z,17.15
2022-08-11T02:30:35.585Z,17.13
2022-08-11T02:32:15.747Z,17.13
2022-08-11T02:33:27.521Z,17.11
2022-08-11T02:34:59.249Z,17.12
2022-08-11T02:36:21.333Z,17.11
2022-08-11T02:37:45.350Z,17.10
2022-08-11T02:39:15.006Z,17.10
2022-08-11T02:40:31.318Z,17.10
2022-08-11T02:42:32.857Z,17.09
2022-08-11T02:43:59.519Z,17.06
2022-08-11T02:45:34.653Z,17.06
2022-08-11T02:47:01.796Z,17.05
2022-08-11T02:48:44.581Z,17.02
2022-08-11T02:50:13.539Z,17.01
2022-08-11T02:51:42.764Z,17.00
2022-08-11T02:52:59.795Z,16.98
2022-08-11T02:54:32.610Z,16.96
2022-08-11T02:55:58.445Z,16.94
2022-08-11T02:57:33.505Z,16.94
2022-08-11T02:58:41.200Z,16.92
2022-08-11T02:59:53.750Z,16.91
2022-08-11T03:01:09.259Z,16.90
2022-08-11T03:02:50.384Z,16.90
2022-08-11T03:04:07.058Z,16.90
2022-08-11T03:05:18.053Z,16.89
2022-08-11T03:06:39.044Z,16.88
2022-08-11T03:07:56.048Z,16.87
2022-08-11T03:09:11.325Z,16.85
2022-08-11T03:10:21.590Z,16.85
2022-08-11T03:12:08.654Z,16.83
2022-08-11T03:13:44.474Z,16.82
2022-08-11T03:15:34.939Z,16.79
2022-08-11T03:16:55.230Z,16.76
2022-08-11T03:18:25.193Z,16.76
2022-08-11T03:19:54.902Z,16.73
2022-08-11T03:21:07.339Z,16.71
2022-08-11T03:22:51.721Z,16.69
2022-08-11T03:24:09.115Z,16.66
2022-08-11T03:25:22.812Z,16.63
2022-08-11T03:26:47.324Z,16.61
2022-08-11T03:28:22.689Z,16.58
2022-08-11T03:29:51.834Z,16.55
2022-08-11T03:31:24.912Z,16.52
2022-08-11T03:32:37.929Z,16.51
2022-08-11T03:34:08.069Z,16.48
2022-08-11T03:35:17.815Z,16.46
2022-08-11T03:37:14.888Z,16.45
2022-08-11T03:38:13.816Z,16.42
2022-08-11T03:39:51.097Z,16.41
2022-08-11T03:42:01.722Z,16.37
2022-08-11T03:43:37.075Z,16.34
2022-08-11T03:45:14.563Z,16.32
2022-08-11T03:46:45.488Z,16.30
2022-08-11T03:48:11.732Z,16.29
2022-08-11T03:49:51.231Z,16.26
2022-08-11T03:51:11.828Z,16.25
2022-08-11T03:52:14.488Z,16.22
2022-08-11T03:53:28.234Z,16.21
2022-08-11T03:54:47.243Z,16.20
2022-08-11T03:56:47.904Z,16.17
2022-08-11T03:57:59.467Z,16.14
2022-08-11T03:59:54.075Z,16.14
2022-08-11T04:01:44.831Z,16.12
2022-08-11T04:03:22.599Z,16.09
2022-08-11T04:04:55.138Z,16.09
2022-08-11T04:06:41.747Z,16.05
2022-08-11T04:08:00.964Z,16.04
2022-08-11T04:09:46.930Z,16.02
2022-08-11T04:11:11.001Z,16.00
2022-08-11T04:12:53.636Z,15.99
2022-08-11T04:14:45.244Z,15.96
2022-08-11T04:16:12.831Z,15.95
2022-08-11T04:17:28.261Z,15.93
2022-08-11T04:19:04.424Z,15.91
2022-08-11T04:20:32.024Z,15.91
2022-08-11T04:22:04.226Z,15.89
2022-08-11T04:24:36.972Z,15.87
2022-08-11T04:26:18.728Z,15.87
2022-08-11T04:27:40.095Z,15.89
2022-08-11T04:28:55.702Z,15.89
2022-08-11T04:30:08.933Z,15.89
2022-08-11T04:31:51.320Z,15.91
2022-08-11T04:33:25.509Z,15.91
2022-08-11T04:34:41.172Z,15.94
2022-08-11T04:36:48.535Z,15.95
2022-08-11T04:38:09.074Z,15.97
2022-08-11T04:39:28.126Z,16.00
2022-08-11T04:40:52.776Z,16.02
2022-08-11T04:42:51.425Z,16.06
2022-08-11T04:44:24.227Z,16.11
2022-08-11T04:45:29.582Z,16.17
2022-08-11T04:47:10.035Z,16.19
2022-08-11T04:48:36.588Z,16.24
2022-08-11T04:50:20.821Z,16.31
2022-08-11T04:52:18.800Z,16.37
2022-08-11T04:54:07.618Z,16.50
2022-08-11T04:56:07.002Z,16.58
2022-08-11T04:57:38.742Z,16.70
2022-08-11T04:59:08.725Z,16.77
2022-08-11T05:00:32.933Z,16.88
2022-08-11T05:01:44.271Z,16.96
2022-08-11T05:03:26.674Z,17.08
2022-08-11T05:05:00.349Z,17.18
2022-08-11T05:06:30.025Z,17.33
2022-08-11T05:07:59.494Z,17.45
2022-08-11T05:09:19.957Z,17.58
2022-08-11T05:10:43.704Z,17.67
2022-08-11T05:12:01.663Z,17.81
2022-08-11T05:13:31.828Z,17.92
2022-08-11T05:15:00.252Z,18.05
2022-08-11T05:16:30.542Z,18.19
2022-08-11T05:17:56.703Z,18.33
2022-08-11T05:19:18.773Z,18.46
2022-08-11T05:20:42.049Z,18.61
2022-08-11T05:22:12.001Z,18.75
2022-08-11T05:23:35.277Z,18.88
2022-08-11T05:25:04.678Z,19.02
2022-08-11T05:26:47.954Z,19.17
2022-08-11T05:28:17.025Z,19.34
2022-08-11T05:30:03.118Z,19.47
2022-08-11T05:31:31.314Z,19.60
2022-08-11T05:33:01.433Z,19.73
2022-08-11T05:34:38.914Z,19.89
2022-08-11T05:36:00.506Z,20.03
2022-08-11T05:37:25.801Z,20.11
2022-08-11T05:38:52.356Z,20.22
2022-08-11T05:40:30.724Z,20.36
2022-08-11T05:41:51.845Z,20.50
2022-08-11T05:43:21.370Z,20.63
2022-08-11T05:44:45.943Z,20.76
2022-08-11T05:46:22.485Z,20.91
2022-08-11T05:47:45.007Z,21.04
2022-08-11T05:49:07.004Z,21.18
2022-08-11T05:50:37.236Z,21.32
2022-08-11T05:52:05.004Z,21.45
2022-08-11T05:53:36.041Z,21.60
2022-08-11T05:55:08.835Z,21.74
2022-08-11T05:56:20.556Z,21.85
2022-08-11T05:57:49.878Z,21.96
2022-08-11T05:58:53.437Z,22.09
2022-08-11T06:00:10.505Z,22.20
2022-08-11T06:01:20.995Z,22.31
2022-08-11T06:02:24.274Z,22.41
2022-08-11T06:03:29.022Z,22.53
2022-08-11T06:04:32.680Z,22.62
2022-08-11T06:05:38.645Z,22.72
2022-08-11T06:07:10.551Z,22.88
2022-08-11T06:08:14.547Z,22.97
2022-08-11T06:09:23.898Z,23.09
2022-08-11T06:10:35.391Z,23.20
2022-08-11T06:11:44.966Z,23.31
2022-08-11T06:12:53.837Z,23.44
2022-08-11T06:13:57.678Z,23.56
2022-08-11T06:15:12.278Z,23.68
2022-08-11T06:16:21.526Z,23.78
2022-08-11T06:17:26.551Z,23.91
2022-08-11T06:18:48.307Z,24.04
2022-08-11T06:20:06.999Z,24.16
2022-08-11T06:21:11.549Z,24.29
2022-08-11T06:22:19.973Z,24.40
2022-08-11T06:23:24.108Z,24.52
2022-08-11T06:24:29.313Z,24.62
2022-08-11T06:25:35.932Z,24.74
2022-08-11T06:27:08.639Z,24.84
2022-08-11T06:28:07.057Z,24.99
2022-08-11T06:29:11.476Z,25.12
2022-08-11T06:30:18.940Z,25.20
2022-08-11T06:31:25.815Z,25.32
2022-08-11T06:32:38.186Z,25.44
2022-08-11T06:33:58.065Z,25.56
2022-08-11T06:35:03.198Z,25.66
2022-08-11T06:36:43.201Z,25.80
2022-08-11T06:38:12.236Z,25.96
2022-08-11T06:39:24.665Z,26.09
2022-08-11T06:41:09.797Z,26.22
2022-08-11T06:42:25.464Z,26.39
2022-08-11T06:43:55.343Z,26.55
2022-08-11T06:45:11.335Z,26.70
2022-08-11T06:46:28.253Z,26.81
2022-08-11T06:47:31.480Z,26.94
2022-08-11T06:48:35.387Z,27.05
2022-08-11T06:50:03.925Z,27.16
2022-08-11T06:51:13.245Z,27.29
2022-08-11T06:52:45.083Z,27.39
2022-08-11T06:54:04.343Z,27.55
2022-08-11T06:55:55.847Z,27.68
2022-08-11T06:57:26.352Z,27.81
2022-08-11T06:58:40.153Z,27.99
2022-08-11T07:00:07.718Z,28.16
2022-08-11T07:01:13.496Z,28.30
2022-08-11T07:02:43.376Z,28.46
2022-08-11T07:03:54.672Z,28.58
2022-08-11T07:05:04.440Z,28.69
2022-08-11T07:06:25.111Z,28.80
2022-08-11T07:08:33.695Z,28.96
2022-08-11T07:10:00.658Z,29.15
2022-08-11T07:11:29.041Z,29.28
2022-08-11T07:13:04.359Z,29.43
2022-08-11T07:14:33.901Z,29.56
2022-08-11T07:16:13.138Z,29.66
2022-08-11T07:17:08.782Z,29.75
2022-08-11T07:18:54.282Z,29.86
2022-08-11T07:20:25.108Z,29.96
2022-08-11T07:22:02.345Z,30.06
2022-08-11T07:23:27.933Z,30.17
2022-08-11T07:25:05.132Z,30.28
2022-08-11T07:26:28.226Z,30.38
2022-08-11T07:28:02.018Z,30.50
2022-08-11T07:29:07.082Z,30.62
2022-08-11T07:30:10.778Z,30.71
2022-08-11T07:31:40.793Z,30.82
2022-08-11T07:32:52.994Z,30.91
2022-08-11T07:34:23.564Z,30.99
2022-08-11T07:35:35.180Z,31.07
2022-08-11T07:36:41.299Z,31.14
2022-08-11T07:37:50.976Z,31.22
2022-08-11T07:39:04.271Z,31.33
2022-08-11T07:40:07.721Z,31.38
2022-08-11T07:41:15.500Z,31.46
2022-08-11T07:42:27.724Z,31.53
2022-08-11T07:43:30.089Z,31.58
2022-08-11T07:45:01.752Z,31.64
2022-08-11T07:46:23.826Z,31.70
2022-08-11T07:47:46.257Z,31.79
2022-08-11T07:49:07.748Z,31.81
2022-08-11T07:50:29.909Z,31.84
2022-08-11T07:51:52.542Z,31.91
2022-08-11T07:52:56.243Z,31.97
2022-08-11T07:54:07.547Z,32.02
2022-08-11T07:55:49.587Z,32.07
2022-08-11T07:56:54.911Z,32.14
2022-08-11T07:58:19.848Z,32.19
2022-08-11T08:00:03.958Z,32.24
2022-08-11T08:01:43.203Z,32.33
2022-08-11T08:03:04.565Z,32.41
2022-08-11T08:04:28.059Z,32.49
2022-08-11T08:05:49.708Z,32.58
2022-08-11T08:07:11.291Z,32.63
2022-08-11T08:08:33.969Z,32.72
2022-08-11T08:09:55.849Z,32.78
2022-08-11T08:11:20.311Z,32.84
2022-08-11T08:12:45.948Z,32.89
2022-08-11T08:14:08.184Z,32.97
2022-08-11T08:15:33.070Z,33.03
2022-08-11T08:16:56.064Z,33.12
2022-08-11T08:18:09.287Z,33.19
2022-08-11T08:19:23.095Z,33.27
2022-08-11T08:20:31.532Z,33.36
2022-08-11T08:21:33.957Z,33.44
2022-08-11T08:22:37.905Z,33.51
2022-08-11T08:23:45.453Z,33.58
2022-08-11T08:24:49.077Z,33.67
2022-08-11T08:25:52.428Z,33.72
2022-08-11T08:26:58.530Z,33.81
2022-08-11T08:28:05.731Z,33.89
2022-08-11T08:29:31.141Z,33.97
2022-08-11T08:30:50.653Z,34.05
2022-08-11T08:31:54.300Z,34.14
2022-08-11T08:32:57.910Z,34.23
2022-08-11T08:34:00.202Z,34.27
2022-08-11T08:35:04.735Z,34.32
2022-08-11T08:36:14.862Z,34.36
2022-08-11T08:37:44.942Z,34.46
2022-08-11T08:38:56.681Z,34.52
2022-08-11T08:39:59.414Z,34.59
2022-08-11T08:41:02.728Z,34.66
2022-08-11T08:42:11.885Z,34.70
2022-08-11T08:43:17.549Z,34.78
2022-08-11T08:44:40.920Z,34.80
2022-08-11T08:45:44.218Z,34.83
2022-08-11T08:46:50.572Z,34.85
2022-08-11T08:48:02.538Z,34.87
2022-08-11T08:49:05.543Z,34.87
2022-08-11T08:50:16.698Z,34.84
2022-08-11T08:52:02.440Z,34.78
2022-08-11T08:53:02.114Z,34.68
2022-08-11T08:54:10.591Z,34.64
2022-08-11T08:55:20.653Z,34.57
2022-08-11T08:56:28.433Z,34.51
2022-08-11T08:57:39.146Z,34.44
2022-08-11T08:58:45.688Z,34.34
2022-08-11T08:59:51.387Z,34.28
2022-08-11T09:00:56.791Z,34.20
2022-08-11T09:02:01.947Z,34.10
2022-08-11T09:03:22.983Z,34.00
2022-08-11T09:04:28.280Z,33.89
2022-08-11T09:05:30.694Z,33.75
2022-08-11T09:06:34.072Z,33.69
2022-08-11T09:07:39.751Z,33.64
2022-08-11T09:08:44.490Z,33.58
2022-08-11T09:09:50.974Z,33.44
2022-08-11T09:11:14.852Z,33.37
2022-08-11T09:12:45.892Z,33.17
2022-08-11T09:13:46.514Z,33.09
2022-08-11T09:15:09.309Z,32.90
2022-08-11T09:16:17.724Z,32.87
2022-08-11T09:17:21.566Z,32.79
2022-08-11T09:18:24.185Z,32.71
2022-08-11T09:19:27.494Z,32.63
2022-08-11T09:20:35.128Z,32.56
2022-08-11T09:21:49.590Z,32.49
2022-08-11T09:24:59.088Z,32.29
2022-08-11T09:26:30.574Z,32.23
2022-08-11T09:27:33.928Z,32.23
2022-08-11T09:28:36.980Z,32.17
2022-08-11T09:29:39.441Z,32.14
2022-08-11T09:30:47.045Z,32.11
2022-08-11T09:31:49.413Z,32.08
2022-08-11T09:32:58.288Z,32.08
2022-08-11T09:34:03.694Z,32.05
2022-08-11T09:35:06.710Z,32.04
2022-08-11T09:36:28.366Z,32.06
2022-08-11T09:37:55.409Z,32.03
2022-08-11T09:39:21.379Z,32.01
2022-08-11T09:40:32.415Z,31.98
2022-08-11T09:42:00.806Z,32.00
2022-08-11T09:43:24.609Z,32.02
2022-08-11T09:44:46.397Z,32.03
2022-08-11T09:45:55.547Z,32.05
2022-08-11T09:47:01.453Z,32.04
2022-08-11T09:48:07.484Z,32.00
2022-08-11T09:49:10.074Z,32.01
2022-08-11T09:50:16.338Z,31.99
2022-08-11T09:51:18.720Z,31.98
2022-08-11T09:52:29.167Z,31.98
2022-08-11T09:53:40.773Z,31.95
2022-08-11T09:54:48.069Z,31.96
2022-08-11T09:55:52.050Z,31.94
2022-08-11T09:57:13.631Z,31.95
2022-08-11T09:58:41.495Z,31.96
2022-08-11T09:59:43.907Z,31.98
2022-08-11T10:00:49.196Z,31.94
2022-08-11T10:01:57.285Z,31.94
2022-08-11T10:03:02.782Z,31.94
2022-08-11T10:04:12.439Z,31.92
2022-08-11T10:05:39.058Z,31.92
2022-08-11T10:07:01.768Z,31.89
2022-08-11T10:08:11.781Z,31.87
2022-08-11T10:09:20.632Z,31.83
2022-08-11T10:10:24.160Z,31.76
2022-08-11T10:11:27.584Z,31.75
2022-08-11T10:12:37.326Z,31.69
2022-08-11T10:14:33.270Z,31.67
2022-08-11T10:15:59.708Z,31.51
2022-08-11T10:17:07.546Z,31.43
2022-08-11T10:18:32.605Z,31.37
2022-08-11T10:19:37.998Z,31.33
2022-08-11T10:20:41.182Z,31.33
2022-08-11T10:22:10.459Z,31.30
2022-08-11T10:23:32.194Z,31.26
2022-08-11T10:24:54.275Z,31.22
2022-08-11T10:26:16.378Z,31.19
2022-08-11T10:27:19.187Z,31.20
2022-08-11T10:28:33.508Z,31.17
2022-08-11T10:30:02.447Z,31.16
2022-08-11T10:31:29.041Z,31.14
2022-08-11T10:33:10.602Z,31.14
2022-08-11T10:34:15.844Z,31.09
2022-08-11T10:35:21.784Z,31.06
2022-08-11T10:36:24.601Z,31.03
2022-08-11T10:38:08.948Z,31.04
2022-08-11T10:38:52.458Z,31.00
2022-08-11T10:39:56.463Z,30.99
2022-08-11T10:41:18.079Z,30.96
2022-08-11T10:42:57.369Z,30.92
2022-08-11T10:44:03.633Z,30.92
2022-08-11T10:45:28.697Z,30.92
2022-08-11T10:46:51.066Z,30.91
2022-08-11T10:47:56.260Z,30.90
2022-08-11T10:49:00.458Z,30.90
2022-08-11T10:50:23.662Z,30.83
2022-08-11T10:51:50.773Z,30.82
2022-08-11T10:53:15.476Z,30.82
2022-08-11T10:54:37.110Z,30.80
2022-08-11T10:56:01.347Z,30.79
2022-08-11T10:57:23.396Z,30.71
2022-08-11T10:58:44.644Z,30.64
2022-08-11T10:59:47.892Z,30.60
2022-08-11T11:00:52.829Z,30.60
2022-08-11T11:01:58.006Z,30.57
2022-08-11T11:03:22.125Z,30.53
2022-08-11T11:04:35.771Z,30.52
2022-08-11T11:05:39.435Z,30.48
2022-08-11T11:07:22.456Z,30.48
2022-08-11T11:08:50.088Z,30.48
2022-08-11T11:09:58.187Z,30.47
2022-08-11T11:11:03.589Z,30.42
2022-08-11T11:12:50.055Z,30.41
2022-08-11T11:14:11.159Z,30.37
2022-08-11T11:15:40.631Z,30.34
2022-08-11T11:17:02.016Z,30.33
2022-08-11T11:18:09.506Z,30.32
2022-08-11T11:19:24.059Z,30.30
2022-08-11T11:20:35.881Z,30.30
2022-08-11T11:21:43.225Z,30.30
2022-08-11T11:22:52.519Z,30.27
2022-08-11T11:24:13.350Z,30.23
2022-08-11T11:25:18.306Z,30.22
2022-08-11T11:26:47.219Z,30.21
2022-08-11T11:28:28.619Z,30.17
2022-08-11T11:30:03.554Z,30.15
2022-08-11T11:31:43.247Z,30.15
2022-08-11T11:33:27.245Z,30.13
2022-08-11T11:34:52.842Z,30.09
2022-08-11T11:36:23.580Z,30.08
2022-08-11T11:37:26.829Z,30.02
2022-08-11T11:38:29.768Z,30.00
2022-08-11T11:39:36.751Z,29.94
2022-08-11T11:40:40.532Z,29.92
2022-08-11T11:41:43.016Z,29.91
2022-08-11T11:42:46.387Z,29.88
2022-08-11T11:43:48.838Z,29.87
2022-08-11T11:44:56.369Z,29.85
2022-08-11T11:46:00.050Z,29.85
2022-08-11T11:47:02.769Z,29.82
2022-08-11T11:48:06.270Z,29.78
2022-08-11T11:49:16.984Z,29.76
2022-08-11T11:50:32.847Z,29.75
2022-08-11T11:51:37.561Z,29.72
2022-08-11T11:52:51.551Z,29.69
2022-08-11T11:53:54.955Z,29.68
2022-08-11T11:54:58.579Z,29.66
2022-08-11T11:56:03.458Z,29.63
2022-08-11T11:57:24.541Z,29.61
2022-08-11T11:58:47.345Z,29.61
2022-08-11T12:00:12.134Z,29.61
2022-08-11T12:01:19.928Z,29.60
2022-08-11T12:02:22.522Z,29.57
2022-08-11T12:03:26.698Z,29.54
2022-08-11T12:04:29.453Z,29.53
2022-08-11T12:05:34.633Z,29.48
2022-08-11T12:06:37.680Z,29.46
2022-08-11T12:08:10.522Z,29.43
2022-08-11T12:09:18.506Z,29.43
2022-08-11T12:10:21.517Z,29.43
2022-08-11T12:11:48.107Z,29.42
2022-08-11T12:13:09.801Z,29.43
2022-08-11T12:14:15.668Z,29.43
2022-08-11T12:16:03.484Z,29.43
2022-08-11T12:16:46.977Z,29.43
2022-08-11T12:17:52.916Z,29.45
2022-08-11T12:18:59.881Z,29.45
2022-08-11T12:20:04.184Z,29.46
2022-08-11T12:21:08.728Z,29.42
2022-08-11T12:22:29.633Z,29.37
2022-08-11T12:23:53.795Z,29.38
2022-08-11T12:25:14.670Z,29.38
2022-08-11T12:26:37.357Z,29.37
2022-08-11T12:27:40.789Z,29.37
2022-08-11T12:28:44.476Z,29.36
2022-08-11T12:29:55.628Z,29.34
2022-08-11T12:31:01.185Z,29.33
2022-08-11T12:32:07.778Z,29.29
2022-08-11T12:33:13.282Z,29.30
2022-08-11T12:34:22.694Z,29.28
2022-08-11T12:35:25.025Z,29.26
2022-08-11T12:36:27.591Z,29.27
2022-08-11T12:37:43.807Z,29.26
2022-08-11T12:38:51.505Z,29.24
2022-08-11T12:40:43.207Z,29.25
2022-08-11T12:42:02.132Z,29.24
2022-08-11T12:44:54.300Z,29.27
2022-08-11T12:46:00.814Z,29.29
2022-08-11T12:47:04.717Z,29.29
2022-08-11T12:49:00.731Z,29.32
2022-08-11T12:50:22.679Z,29.32
2022-08-11T12:52:10.996Z,29.31
2022-08-11T12:53:12.249Z,29.29
2022-08-11T12:54:25.560Z,29.30
2022-08-11T12:56:04.087Z,29.28
2022-08-11T12:57:37.164Z,29.28
2022-08-11T12:58:42.056Z,29.24
2022-08-11T13:00:04.481Z,29.24
2022-08-11T13:01:25.949Z,29.24
2022-08-11T13:02:47.210Z,29.24
2022-08-11T13:04:08.201Z,29.23
2022-08-11T13:05:16.000Z,29.24
2022-08-11T13:06:19.416Z,29.22
2022-08-11T13:07:23.002Z,29.22
2022-08-11T13:08:34.812Z,29.22
2022-08-11T13:09:37.079Z,29.22
2022-08-11T13:10:58.293Z,29.23
2022-08-11T13:12:22.774Z,29.18
2022-08-11T13:13:52.741Z,29.14
2022-08-11T13:14:48.494Z,29.09
2022-08-11T13:15:52.185Z,29.09
2022-08-11T13:17:13.802Z,29.08
2022-08-11T13:18:23.249Z,29.07
2022-08-11T13:19:26.687Z,29.07
2022-08-11T13:20:29.483Z,29.05
2022-08-11T13:21:31.980Z,29.04
2022-08-11T13:22:37.817Z,29.03
2022-08-11T13:23:40.979Z,29.02
2022-08-11T13:25:04.358Z,29.04
2022-08-11T13:26:10.835Z,29.04
2022-08-11T13:27:13.779Z,29.03
2022-08-11T13:28:18.701Z,29.00
2022-08-11T13:29:23.436Z,28.99
2022-08-11T13:30:47.435Z,29.00
2022-08-11T13:31:53.713Z,28.99
2022-08-11T13:32:56.456Z,28.96
2022-08-11T13:33:59.448Z,28.96
2022-08-11T13:35:02.005Z,28.95
2022-08-11T13:36:05.151Z,28.94
2022-08-11T13:37:15.514Z,28.92
2022-08-11T13:38:22.274Z,28.91
2022-08-11T13:39:27.637Z,28.90
2022-08-11T13:40:52.933Z,28.85
2022-08-11T13:41:56.980Z,28.84
2022-08-11T13:43:00.411Z,28.80
2022-08-11T13:44:03.287Z,28.76
2022-08-11T13:45:07.931Z,28.72
2022-08-11T13:46:20.481Z,28.72
2022-08-11T13:47:27.380Z,28.68
2022-08-11T13:48:32.694Z,28.67
2022-08-11T13:49:39.976Z,28.64
2022-08-11T13:51:04.950Z,28.64
2022-08-11T13:52:13.094Z,28.63
2022-08-11T13:53:17.469Z,28.62
2022-08-11T13:54:23.944Z,28.60
2022-08-11T13:55:33.452Z,28.59
2022-08-11T13:56:54.234Z,28.59
2022-08-11T13:58:06.515Z,28.58
2022-08-11T13:59:27.597Z,28.53
2022-08-11T14:00:32.689Z,28.56
2022-08-11T14:02:22.405Z,28.56
2022-08-11T14:03:04.788Z,28.56
2022-08-11T14:04:30.646Z,28.54
2022-08-11T14:05:39.094Z,28.53
2022-08-11T14:06:49.421Z,28.53
2022-08-11T14:07:53.840Z,28.53
2022-08-11T14:08:56.567Z,28.51
2022-08-11T14:10:01.530Z,28.50
2022-08-11T14:12:22.030Z,28.50
2022-08-11T14:13:15.744Z,28.51
2022-08-11T14:14:23.633Z,28.49
2022-08-11T14:15:32.086Z,28.49
2022-08-11T14:16:40.593Z,28.49
2022-08-11T14:17:48.653Z,28.49
2022-08-11T14:18:54.866Z,28.49
2022-08-11T14:19:59.348Z,28.49
2022-08-11T14:21:23.642Z,28.48
2022-08-11T14:22:26.456Z,28.49
2022-08-11T14:23:47.532Z,28.49
2022-08-11T14:24:50.603Z,28.50
2022-08-11T14:26:13.672Z,28.49
2022-08-11T14:28:25.687Z,28.49
2022-08-11T14:28:45.073Z,28.48
2022-08-11T14:29:56.540Z,28.48
2022-08-11T14:31:02.048Z,28.48
2022-08-11T14:32:06.648Z,28.49
2022-08-11T14:33:16.579Z,28.46
2022-08-11T14:34:22.730Z,28.46
2022-08-11T14:35:28.257Z,28.43
2022-08-11T14:36:35.370Z,28.44
2022-08-11T14:37:41.194Z,28.44
2022-08-11T14:38:44.418Z,28.44
2022-08-11T14:39:50.539Z,28.44
2022-08-11T14:41:15.102Z,28.44
2022-08-11T14:42:38.170Z,28.44
2022-08-11T14:44:13.277Z,28.44
2022-08-11T14:45:54.212Z,28.43
2022-08-11T14:47:05.866Z,28.42
2022-08-11T14:48:27.809Z,28.41
2022-08-11T14:49:30.474Z,28.41
2022-08-11T14:50:34.423Z,28.41
2022-08-11T14:51:37.179Z,28.40
2022-08-11T14:53:08.357Z,28.39
2022-08-11T14:54:29.475Z,28.41
2022-08-11T14:55:55.794Z,28.38
2022-08-11T14:57:02.500Z,28.38
2022-08-11T14:58:06.239Z,28.36
2022-08-11T14:59:08.838Z,28.35
2022-08-11T15:00:15.711Z,28.36
2022-08-11T15:01:36.886Z,28.33
2022-08-11T15:02:58.790Z,28.30
2022-08-11T15:04:35.145Z,28.28
2022-08-11T15:05:28.142Z,28.25
2022-08-11T15:06:30.683Z,28.27
2022-08-11T15:07:33.802Z,28.24
2022-08-11T15:08:57.642Z,28.25
2022-08-11T15:10:12.647Z,28.23
2022-08-11T15:11:37.717Z,28.21
2022-08-11T15:12:43.119Z,28.18
2022-08-11T15:13:45.529Z,28.18
2022-08-11T15:15:08.024Z,28.17
2022-08-11T15:16:28.732Z,28.16
2022-08-11T15:17:42.982Z,28.16
2022-08-11T15:18:46.713Z,28.13
2022-08-11T15:20:10.287Z,28.10
2022-08-11T15:21:31.227Z,28.09
2022-08-11T15:22:52.881Z,28.06
2022-08-11T15:24:14.233Z,28.05
2022-08-11T15:25:17.376Z,28.05
2022-08-11T15:27:04.752Z,28.03
2022-08-11T15:28:32.123Z,28.03
2022-08-11T15:29:56.212Z,28.00
2022-08-11T15:31:29.788Z,27.98
2022-08-11T15:32:53.577Z,28.00
2022-08-11T15:34:19.997Z,27.98
2022-08-11T15:35:41.751Z,27.99
2022-08-11T15:37:05.799Z,27.94
2022-08-11T15:38:19.840Z,27.92
2022-08-11T15:39:30.354Z,27.90
2022-08-11T15:40:57.948Z,27.89
2022-08-11T15:42:26.629Z,27.89
2022-08-11T15:44:07.706Z,27.88
2022-08-11T15:45:31.161Z,27.89
2022-08-11T15:46:39.859Z,27.86
2022-08-11T15:47:46.321Z,27.86
2022-08-11T15:48:56.215Z,27.84
2022-08-11T15:50:11.361Z,27.83
2022-08-11T15:51:28.512Z,27.82
2022-08-11T15:52:34.561Z,27.82
2022-08-11T15:53:56.608Z,27.81
2022-08-11T15:55:02.367Z,27.83
2022-08-11T15:56:07.041Z,27.82
2022-08-11T15:57:39.640Z,27.82
2022-08-11T15:59:40.897Z,27.81
2022-08-11T16:00:58.713Z,27.80
2022-08-11T16:02:32.859Z,27.79
2022-08-11T16:04:09.185Z,27.77
2022-08-11T16:05:45.770Z,27.75
2022-08-11T16:06:54.233Z,27.74
2022-08-11T16:07:59.818Z,27.73
2022-08-11T16:09:09.542Z,27.74
2022-08-11T16:10:24.110Z,27.73
2022-08-11T16:11:28.092Z,27.73
2022-08-11T16:12:33.175Z,27.72
2022-08-11T16:13:41.767Z,27.71
2022-08-11T16:15:06.776Z,27.70
2022-08-11T16:16:14.684Z,27.70
2022-08-11T16:17:23.456Z,27.69
2022-08-11T16:18:43.784Z,27.66
2022-08-11T16:19:48.796Z,27.65
2022-08-11T16:20:55.636Z,27.65
2022-08-11T16:21:58.774Z,27.65
2022-08-11T16:23:04.839Z,27.63
2022-08-11T16:25:58.133Z,27.62
2022-08-11T16:27:04.127Z,27.61
2022-08-11T16:27:10.914Z,27.60
2022-08-11T16:28:17.051Z,27.61
2022-08-11T16:29:32.101Z,27.59
2022-08-11T16:30:36.191Z,27.60
2022-08-11T16:31:43.112Z,27.59
2022-08-11T16:32:54.827Z,27.58
2022-08-11T16:33:59.049Z,27.57
2022-08-11T16:35:23.930Z,27.56
2022-08-11T16:36:46.276Z,27.55
2022-08-11T16:38:08.190Z,27.54
2022-08-11T16:39:13.679Z,27.53
2022-08-11T16:40:18.810Z,27.53
2022-08-11T16:41:44.361Z,27.51
2022-08-11T16:43:10.835Z,27.51
2022-08-11T16:44:37.681Z,27.51
2022-08-11T16:46:02.617Z,27.50
2022-08-11T16:47:12.230Z,27.48
2022-08-11T16:48:35.754Z,27.46
2022-08-11T16:49:52.802Z,27.45
2022-08-11T16:50:56.612Z,27.45
2022-08-11T16:52:05.856Z,27.44
2022-08-11T16:53:08.120Z,27.42
2022-08-11T16:54:10.669Z,27.43
2022-08-11T16:55:12.952Z,27.41
2022-08-11T16:56:40.918Z,27.42